createdAt,value
2022-09-01T04:00:42.381Z,100350.81
2022-09-01T04:04:52.563Z,100351.63
2022-09-01T04:09:02.553Z,100356.59
2022-09-01T04:13:11.658Z,100357.00
2022-09-01T04:17:34.697Z,100360.13
2022-09-01T04:21:38.256Z,100353.47
2022-09-01T04:25:41.552Z,100347.00
2022-09-01T04:29:46.736Z,100356.81
2022-09-01T04:33:53.634Z,100356.00
2022-09-01T04:37:57.409Z,100361.63
2022-09-01T04:41:59.984Z,100370.41
2022-09-01T04:46:03.275Z,100368.56
2022-09-01T04:50:13.886Z,100368.09
2022-09-01T04:54:19.642Z,100373.50
2022-09-01T04:58:22.964Z,100368.06
2022-09-01T05:02:28.121Z,100368.72
2022-09-01T05:06:33.847Z,100371.28
2022-09-01T05:10:42.148Z,100372.53
2022-09-01T05:14:53.992Z,100365.44
2022-09-01T05:18:57.930Z,100372.72
2022-09-01T05:23:06.363Z,100368.78
2022-09-01T05:27:12.525Z,100374.84
2022-09-01T05:31:19.651Z,100368.34
2022-09-01T05:35:24.686Z,100375.88
2022-09-01T05:39:38.351Z,100371.78
2022-09-01T05:43:45.323Z,100373.41
2022-09-01T05:47:48.855Z,100375.53
2022-09-01T05:51:55.051Z,100377.06
2022-09-01T05:55:59.894Z,100374.09
2022-09-01T06:00:10.941Z,100375.78
2022-09-01T06:04:16.076Z,100378.47
2022-09-01T06:08:21.533Z,100377.34
2022-09-01T06:12:26.847Z,100370.50
2022-09-01T06:16:31.006Z,100366.97
2022-09-01T06:20:33.870Z,100361.63
2022-09-01T06:24:39.637Z,100363.16
2022-09-01T06:28:43.634Z,100371.84
2022-09-01T06:32:46.776Z,100379.53
2022-09-01T06:36:51.721Z,100381.53
2022-09-01T06:41:01.935Z,100370.25
2022-09-01T06:45:10.296Z,100370.56
2022-09-01T06:49:12.911Z,100368.81
2022-09-01T06:53:34.439Z,100374.53
2022-09-01T07:02:04.660Z,100372.03
2022-09-01T07:07:00.118Z,100374.34
2022-09-01T07:12:08.124Z,100376.88
2022-09-01T07:20:24.755Z,100368.63
2022-09-01T07:24:31.818Z,100368.56
2022-09-01T07:29:13.326Z,100367.13
2022-09-01T07:47:19.882Z,100375.44
2022-09-01T07:51:40.776Z,100373.69
2022-09-01T07:55:45.541Z,100378.19
2022-09-01T07:59:50.375Z,100370.78
2022-09-01T08:03:57.934Z,100381.94
2022-09-01T08:08:01.118Z,100372.50
2022-09-01T08:12:09.659Z,100386.66
2022-09-01T08:16:17.848Z,100381.47
2022-09-01T08:20:21.316Z,100386.94
2022-09-01T08:24:26.889Z,100383.19
2022-09-01T08:28:31.135Z,100381.97
2022-09-01T08:32:34.426Z,100378.69
2022-09-01T08:36:37.570Z,100386.16
2022-09-01T08:40:42.814Z,100380.16
2022-09-01T08:44:58.396Z,100374.41
2022-09-01T08:49:24.260Z,100383.19
2022-09-01T08:53:57.877Z,100388.63
2022-09-01T08:58:04.812Z,100379.91
2022-09-01T09:02:44.768Z,100390.34
2022-09-01T09:06:56.052Z,100385.31
2022-09-01T09:11:02.163Z,100390.34
2022-09-01T09:15:21.874Z,100386.19
2022-09-01T09:19:29.737Z,100384.00
2022-09-01T09:23:40.343Z,100383.94
2022-09-01T09:27:45.295Z,100380.41
2022-09-01T09:31:50.687Z,100369.34
2022-09-01T09:35:57.591Z,100372.38
2022-09-01T09:40:12.083Z,100373.19
2022-09-01T09:44:23.147Z,100367.66
2022-09-01T09:48:30.628Z,100363.69
2022-09-01T09:52:34.485Z,100362.19
2022-09-01T09:56:37.219Z,100368.75
2022-09-01T10:00:40.126Z,100362.28
2022-09-01T10:04:44.195Z,100359.22
2022-09-01T10:08:48.190Z,100367.34
2022-09-01T10:12:50.828Z,100355.91
2022-09-01T10:16:59.212Z,100364.25
2022-09-01T10:21:04.363Z,100360.16
2022-09-01T10:25:13.086Z,100352.91
2022-09-01T10:29:20.995Z,100361.56
2022-09-01T10:33:23.845Z,100355.16
2022-09-01T10:37:27.722Z,100349.00
2022-09-01T10:41:59.494Z,100353.41
2022-09-01T10:46:15.703Z,100345.38
2022-09-01T10:50:35.343Z,100346.47
2022-09-01T10:54:57.883Z,100345.72
2022-09-01T11:03:56.549Z,100325.66
2022-09-01T11:08:01.501Z,100333.22
2022-09-01T11:12:44.262Z,100327.91
2022-09-01T11:17:16.958Z,100333.59
2022-09-01T11:21:26.243Z,100333.44
2022-09-01T11:25:39.224Z,100333.69
2022-09-01T11:29:55.696Z,100339.78
2022-09-01T11:34:20.864Z,100323.50
2022-09-01T11:38:24.511Z,100322.69
2022-09-01T11:42:30.611Z,100327.50
2022-09-01T11:46:36.679Z,100328.78
2022-09-01T11:50:42.928Z,100334.59
2022-09-01T11:54:47.551Z,100323.78
2022-09-01T11:58:50.113Z,100329.66
2022-09-01T12:02:54.405Z,100329.63
2022-09-01T12:07:02.290Z,100328.06
2022-09-01T12:11:07.862Z,100327.66
2022-09-01T12:15:18.898Z,100330.72
2022-09-01T12:19:25.379Z,100323.00
2022-09-01T12:23:31.621Z,100323.13
2022-09-01T12:27:36.571Z,100323.59
2022-09-01T12:31:43.080Z,100323.06
2022-09-01T12:35:46.271Z,100324.44
2022-09-01T12:39:52.089Z,100318.28
2022-09-01T12:43:55.060Z,100320.09
2022-09-01T12:47:58.843Z,100314.31
2022-09-01T12:52:25.329Z,100305.31
2022-09-01T12:56:31.874Z,100310.66
2022-09-01T14:18:49.039Z,100247.44
2022-09-01T14:22:53.016Z,100240.41
2022-09-01T14:26:55.551Z,100233.19
2022-09-01T14:35:00.917Z,100232.13
2022-09-01T14:39:03.501Z,100240.44
2022-09-01T14:43:09.684Z,100228.56
2022-09-01T14:47:18.223Z,100231.16
2022-09-01T14:51:26.946Z,100233.97
2022-09-01T14:55:51.521Z,100227.75
2022-09-01T14:59:57.735Z,100230.38
2022-09-01T15:04:00.516Z,100225.88
2022-09-01T15:08:04.572Z,100219.50
2022-09-01T15:12:09.431Z,100224.66
2022-09-01T15:20:37.502Z,100213.50
2022-09-01T15:24:41.474Z,100216.06
2022-09-01T15:28:44.785Z,100215.22
2022-09-01T15:32:49.403Z,100203.47
2022-09-01T15:36:51.955Z,100205.50
2022-09-01T15:40:58.530Z,100205.31
2022-09-01T15:45:01.509Z,100203.06
2022-09-01T15:49:06.677Z,100195.50
2022-09-01T15:53:13.120Z,100196.38
2022-09-01T15:57:18.316Z,100195.34
2022-09-01T16:01:22.290Z,100202.06
2022-09-01T16:05:25.922Z,100192.41
2022-09-01T16:09:29.126Z,100191.78
2022-09-01T16:13:33.048Z,100190.66
2022-09-01T16:17:49.290Z,100181.38
2022-09-01T16:21:58.872Z,100184.09
2022-09-01T16:26:01.920Z,100186.88
2022-09-01T16:30:08.576Z,100184.03
2022-09-01T16:34:18.156Z,100191.03
2022-09-01T16:38:34.887Z,100184.03
2022-09-01T16:42:46.954Z,100180.91
2022-09-01T16:47:00.794Z,100176.94
2022-09-01T16:51:12.657Z,100184.81
2022-09-01T16:55:24.668Z,100183.88
2022-09-01T16:59:38.249Z,100182.72
2022-09-01T17:03:55.567Z,100191.19
2022-09-01T17:08:07.706Z,100185.72
2022-09-01T17:12:23.520Z,100182.88
2022-09-01T17:16:30.674Z,100190.00
2022-09-01T17:20:40.540Z,100181.31
2022-09-01T17:24:46.168Z,100188.69
2022-09-01T17:28:55.262Z,100182.97
2022-09-01T17:33:12.124Z,100180.50
2022-09-01T17:37:33.025Z,100187.44
2022-09-01T17:41:39.580Z,100180.34
2022-09-01T17:45:51.451Z,100188.06
2022-09-01T17:49:59.716Z,100188.09
2022-09-01T17:54:14.682Z,100190.03
2022-09-01T17:58:32.430Z,100197.47
2022-09-01T18:03:14.779Z,100199.69
2022-09-01T18:07:34.921Z,100197.16
2022-09-01T18:11:44.448Z,100200.44
2022-09-01T18:15:52.534Z,100199.31
2022-09-01T18:20:05.011Z,100199.50
2022-09-01T18:24:16.529Z,100196.06
2022-09-01T18:28:20.425Z,100209.66
2022-09-01T18:32:35.123Z,100205.44
2022-09-01T18:36:52.086Z,100214.69
2022-09-01T18:41:10.334Z,100210.31
2022-09-01T18:45:25.561Z,100220.63
2022-09-01T18:49:34.970Z,100219.81
2022-09-01T18:53:46.580Z,100220.97
2022-09-01T18:57:54.446Z,100224.19
2022-09-01T19:02:08.531Z,100217.72
2022-09-01T19:06:24.177Z,100220.19
2022-09-01T19:10:33.142Z,100220.03
2022-09-01T19:14:43.287Z,100224.72
2022-09-01T19:18:55.896Z,100219.81
2022-09-01T19:23:03.453Z,100211.25
2022-09-01T19:27:11.133Z,100219.53
2022-09-01T19:31:22.117Z,100216.78
2022-09-01T19:35:26.868Z,100229.66
2022-09-01T19:39:31.870Z,100223.47
2022-09-01T19:43:38.611Z,100227.78
2022-09-01T19:47:48.248Z,100232.28
2022-09-01T19:51:59.591Z,100235.28
2022-09-01T19:56:08.623Z,100228.75
2022-09-01T20:00:15.421Z,100233.47
2022-09-01T20:04:27.747Z,100233.13
2022-09-01T20:08:38.001Z,100235.75
2022-09-01T20:12:48.499Z,100237.31
2022-09-01T20:16:54.119Z,100230.69
2022-09-01T20:21:00.448Z,100234.25
2022-09-01T20:25:10.204Z,100238.31
2022-09-01T20:29:19.292Z,100246.34
2022-09-01T20:33:34.644Z,100242.59
2022-09-01T20:37:39.914Z,100235.25
2022-09-01T20:41:52.916Z,100229.25
2022-09-01T20:45:55.522Z,100237.56
2022-09-01T20:50:00.080Z,100235.88
2022-09-01T20:54:24.411Z,100231.84
2022-09-01T20:58:34.539Z,100237.47
